Time;durP1;ratioP1;P1;durP2;ratioP2;P2;SDS_P1;SDS_P2;PMS_P1;PMS_P2;Temp;Humidity;BMP_temperature;BMP_pressure;BME280_temperature;BME280_humidity;BME280_pressure;Samples;Min_cycle;Max_cycle;Signal;HPM_P1;HPM_P2
2023/10/27 00:00:31;;;;;;;;;;;19.90;81.90;;;;;;6277536;22;43721;-77
2023/10/27 00:02:56;;;;;;;;;;;19.80;81.70;;;;;;6278120;22;42887;-77
2023/10/27 00:05:22;;;;;;;;;;;19.70;81.80;;;;;;6278395;22;42897;-76
2023/10/27 00:07:47;;;;;;;;;;;19.90;81.80;;;;;;6277749;22;42768;-76
2023/10/27 00:10:13;;;;;;;;;;;19.80;81.80;;;;;;6278779;22;43349;-75
2023/10/27 00:12:39;;;;;;;;;;;19.70;81.30;;;;;;6250734;22;42928;-76
2023/10/27 00:15:05;;;;;;;;;;;19.80;81.30;;;;;;6278329;22;42927;-76
2023/10/27 00:17:30;;;;;;;;;;;19.80;81.20;;;;;;6278294;22;42863;-75
2023/10/27 00:19:56;;;;;;;;;;;19.70;81.70;;;;;;6277288;22;42702;-77
2023/10/27 00:22:55;;;;;;;;;;;19.70;81.70;;;;;;6284345;22;42706;-77
2023/10/27 00:25:21;;;;;;;;;;;19.90;79.60;;;;;;6310494;22;43569;-76
2023/10/27 00:27:46;;;;;;;;;;;19.80;81.30;;;;;;6316851;22;42753;-76
2023/10/27 00:30:12;;;;;;;;;;;19.90;81.40;;;;;;6318526;22;42777;-75
2023/10/27 00:32:38;;;;;;;;;;;19.60;81.60;;;;;;6316507;22;42729;-75
2023/10/27 00:35:06;;;;;;;;;;;19.80;81.80;;;;;;6309436;22;42736;-76
2023/10/27 00:37:35;;;;;;;;;;;19.80;81.40;;;;;;6309351;22;42831;-75
2023/10/27 00:40:01;;;;;;;;;;;19.80;81.80;;;;;;6309462;22;42762;-77
2023/10/27 00:42:26;;;;;;;;;;;19.80;81.70;;;;;;6308964;22;42842;-78
2023/10/27 00:44:52;;;;;;;;;;;19.90;81.80;;;;;;6309813;22;43537;-76
2023/10/27 00:47:18;;;;;;;;;;;19.80;81.60;;;;;;6309543;22;42937;-76
2023/10/27 00:49:43;;;;;;;;;;;19.80;81.70;;;;;;6308896;22;42788;-78
2023/10/27 00:52:11;;;;;;;;;;;19.80;81.20;;;;;;6309533;22;42926;-77
2023/10/27 00:54:36;;;;;;;;;;;19.80;81.70;;;;;;6309952;22;42762;-77
2023/10/27 00:57:02;;;;;;;;;;;19.80;81.30;;;;;;6309531;22;42823;-77
2023/10/27 00:59:27;;;;;;;;;;;19.90;81.30;;;;;;6308960;22;43010;-77
2023/10/27 01:01:53;;;;;;;;;;;19.80;81.30;;;;;;6309065;22;42784;-76
2023/10/27 01:04:18;;;;;;;;;;;19.80;81.80;;;;;;6282492;22;43765;-76
2023/10/27 01:06:44;;;;;;;;;;;19.60;81.60;;;;;;6309111;22;42749;-77
2023/10/27 01:09:10;;;;;;;;;;;20.00;81.90;;;;;;6308680;22;43409;-78
2023/10/27 01:11:35;;;;;;;;;;;19.70;81.70;;;;;;6308387;22;43061;-78
2023/10/27 01:14:01;;;;;;;;;;;19.90;81.70;;;;;;6308161;22;42900;-78
2023/10/27 01:16:26;;;;;;;;;;;19.80;81.70;;;;;;6309818;22;42902;-77
2023/10/27 01:18:52;;;;;;;;;;;19.90;81.80;;;;;;6309106;22;42781;-77
2023/10/27 01:21:17;;;;;;;;;;;19.80;81.80;;;;;;6309160;22;42960;-75
2023/10/27 01:23:43;;;;;;;;;;;19.90;81.30;;;;;;6333656;22;42800;-77
2023/10/27 01:26:08;;;;;;;;;;;19.70;81.90;;;;;;6339764;22;43004;-76
2023/10/27 01:28:34;;;;;;;;;;;19.80;82.10;;;;;;6337648;22;43397;-77
2023/10/27 01:30:59;;;;;;;;;;;19.70;81.70;;;;;;6340302;22;42790;-77
2023/10/27 01:33:25;;;;;;;;;;;19.80;81.40;;;;;;6337994;22;43927;-76
2023/10/27 01:35:50;;;;;;;;;;;19.70;81.70;;;;;;6338859;22;42890;-77
2023/10/27 01:38:16;;;;;;;;;;;19.80;81.60;;;;;;6338892;22;42949;-77
2023/10/27 01:40:41;;;;;;;;;;;19.80;81.60;;;;;;6340012;22;42745;-78
2023/10/27 01:43:07;;;;;;;;;;;19.80;81.30;;;;;;6312489;22;45130;-77
2023/10/27 01:45:33;;;;;;;;;;;19.60;81.60;;;;;;6338314;22;42849;-76
2023/10/27 01:47:58;;;;;;;;;;;19.80;81.60;;;;;;6338990;22;43687;-77
2023/10/27 01:50:24;;;;;;;;;;;19.90;81.50;;;;;;6338807;22;42885;-76
2023/10/27 01:52:49;;;;;;;;;;;19.90;81.80;;;;;;6339365;22;43689;-76
2023/10/27 01:55:15;;;;;;;;;;;19.70;81.80;;;;;;6339166;22;42770;-75
2023/10/27 01:57:40;;;;;;;;;;;19.70;81.60;;;;;;6338710;22;43242;-76
2023/10/27 02:00:07;;;;;;;;;;;19.90;81.80;;;;;;6339731;22;42857;-75
2023/10/27 02:02:34;;;;;;;;;;;19.70;80.80;;;;;;6338612;22;42894;-77
2023/10/27 02:04:59;;;;;;;;;;;19.70;81.10;;;;;;6340275;22;42896;-76
2023/10/27 02:07:25;;;;;;;;;;;19.90;81.80;;;;;;6339179;22;42964;-78
2023/10/27 02:09:51;;;;;;;;;;;19.80;81.70;;;;;;6339765;22;42939;-77
2023/10/27 02:12:16;;;;;;;;;;;19.80;81.70;;;;;;6311031;22;42900;-76
2023/10/27 02:14:42;;;;;;;;;;;19.90;81.70;;;;;;6340071;22;43047;-76
2023/10/27 02:17:07;;;;;;;;;;;19.80;81.80;;;;;;6339256;22;43507;-76
2023/10/27 02:19:33;;;;;;;;;;;19.90;81.30;;;;;;6339501;22;42894;-78
2023/10/27 02:21:59;;;;;;;;;;;20.00;81.90;;;;;;6338348;22;42912;-76
2023/10/27 02:24:24;;;;;;;;;;;19.70;81.60;;;;;;6339401;22;42900;-75
2023/10/27 02:26:50;;;;;;;;;;;19.80;81.70;;;;;;6337960;22;43067;-77
2023/10/27 02:29:17;;;;;;;;;;;20.10;81.90;;;;;;6339984;22;42986;-75
2023/10/27 02:31:43;;;;;;;;;;;19.90;81.70;;;;;;6338333;22;43468;-76
2023/10/27 02:34:09;;;;;;;;;;;19.90;81.70;;;;;;6338445;22;42929;-77
2023/10/27 02:36:34;;;;;;;;;;;19.70;81.10;;;;;;6337649;22;43914;-75
2023/10/27 02:38:59;;;;;;;;;;;19.90;81.70;;;;;;6340183;22;43025;-75
2023/10/27 02:41:25;;;;;;;;;;;19.80;81.60;;;;;;6341154;22;42906;-76
2023/10/27 02:43:51;;;;;;;;;;;19.70;81.60;;;;;;6338936;22;43003;-76
2023/10/27 02:46:16;;;;;;;;;;;19.90;81.80;;;;;;6339272;22;42827;-77
2023/10/27 02:48:42;;;;;;;;;;;19.90;81.80;;;;;;6339717;22;42892;-77
2023/10/27 02:51:08;;;;;;;;;;;19.80;81.50;;;;;;6339460;22;43234;-76
2023/10/27 02:53:34;;;;;;;;;;;19.90;81.70;;;;;;6343950;22;43008;-77
2023/10/27 02:56:09;;;;;;;;;;;19.70;81.70;;;;;;6351076;22;42795;-76
2023/10/27 02:58:35;;;;;;;;;;;19.90;80.00;;;;;;6345026;22;42889;-75
2023/10/27 03:01:06;;;;;;;;;;;19.70;81.50;;;;;;6342177;22;42914;-77
2023/10/27 03:03:32;;;;;;;;;;;19.80;80.80;;;;;;6271128;22;44039;-76
2023/10/27 03:05:58;;;;;;;;;;;19.80;80.90;;;;;;6278254;22;43423;-77
2023/10/27 03:08:24;;;;;;;;;;;19.80;81.00;;;;;;6279476;22;42875;-76
2023/10/27 03:10:49;;;;;;;;;;;19.60;81.30;;;;;;6278651;22;42931;-77
2023/10/27 03:13:15;;;;;;;;;;;19.90;81.00;;;;;;6278342;22;42951;-76
2023/10/27 03:15:40;;;;;;;;;;;19.80;81.60;;;;;;6275402;22;43469;-76
2023/10/27 03:18:06;;;;;;;;;;;20.00;81.10;;;;;;6278008;22;43071;-77
2023/10/27 03:20:31;;;;;;;;;;;20.00;81.70;;;;;;6279455;22;43614;-76
2023/10/27 03:22:57;;;;;;;;;;;19.80;81.50;;;;;;6279363;22;42895;-76
2023/10/27 03:25:22;;;;;;;;;;;19.70;81.40;;;;;;6280876;22;43528;-77
2023/10/27 03:27:49;;;;;;;;;;;19.70;81.40;;;;;;6282283;22;42865;-77
2023/10/27 03:30:15;;;;;;;;;;;19.40;81.30;;;;;;6281426;22;44284;-76
2023/10/27 03:32:43;;;;;;;;;;;19.80;81.10;;;;;;6279848;22;42786;-77
2023/10/27 03:35:09;;;;;;;;;;;19.80;79.50;;;;;;6279969;22;44205;-77
2023/10/27 03:37:35;;;;;;;;;;;19.90;80.90;;;;;;6277808;22;42857;-76
2023/10/27 03:40:03;;;;;;;;;;;19.80;81.60;;;;;;6278237;22;43461;-76
2023/10/27 03:42:28;;;;;;;;;;;19.80;81.00;;;;;;6277275;22;42925;-76
2023/10/27 03:44:54;;;;;;;;;;;19.90;81.70;;;;;;6276450;22;43006;-76
2023/10/27 03:47:19;;;;;;;;;;;19.70;81.60;;;;;;6275451;22;42978;-75
2023/10/27 03:49:45;;;;;;;;;;;19.00;81.10;;;;;;6277593;22;43370;-75
2023/10/27 03:52:10;;;;;;;;;;;19.80;81.20;;;;;;6277107;22;42888;-77
2023/10/27 03:54:36;;;;;;;;;;;19.80;80.90;;;;;;6278820;22;43271;-75
2023/10/27 03:57:02;;;;;;;;;;;19.90;81.10;;;;;;6281397;22;42894;-75
2023/10/27 03:59:27;;;;;;;;;;;19.80;81.60;;;;;;6280940;22;43126;-76
2023/10/27 04:01:53;;;;;;;;;;;19.70;81.00;;;;;;6281423;22;42939;-77
2023/10/27 04:04:19;;;;;;;;;;;20.10;81.00;;;;;;6250671;22;42898;-76
2023/10/27 04:06:45;;;;;;;;;;;19.90;81.60;;;;;;6278435;22;43013;-75
2023/10/27 04:09:10;;;;;;;;;;;20.10;81.60;;;;;;6252722;22;42972;-75
2023/10/27 04:11:36;;;;;;;;;;;19.70;81.30;;;;;;6251224;22;42859;-74
2023/10/27 04:14:02;;;;;;;;;;;19.80;81.30;;;;;;6278256;22;42813;-74
2023/10/27 04:16:29;;;;;;;;;;;19.70;81.60;;;;;;6276760;22;42867;-75
2023/10/27 04:18:55;;;;;;;;;;;19.90;81.50;;;;;;6277877;22;43146;-76
2023/10/27 04:21:21;;;;;;;;;;;19.80;81.60;;;;;;6277232;22;42867;-76
2023/10/27 04:23:47;;;;;;;;;;;19.70;81.40;;;;;;6278189;22;42832;-75
2023/10/27 04:26:13;;;;;;;;;;;19.80;81.70;;;;;;6276799;22;43324;-76
2023/10/27 04:28:38;;;;;;;;;;;19.70;81.30;;;;;;6276795;22;43586;-75
2023/10/27 04:31:05;;;;;;;;;;;19.70;81.40;;;;;;6275244;22;43159;-75
2023/10/27 04:33:30;;;;;;;;;;;19.90;81.60;;;;;;6276427;22;43225;-75
2023/10/27 04:35:56;;;;;;;;;;;19.80;81.60;;;;;;6276348;22;42840;-75
2023/10/27 04:38:21;;;;;;;;;;;19.80;81.60;;;;;;6276339;22;43031;-76
2023/10/27 04:40:48;;;;;;;;;;;19.90;81.00;;;;;;6275866;22;42966;-75
2023/10/27 04:43:14;;;;;;;;;;;19.70;81.40;;;;;;6277668;22;43805;-74
2023/10/27 04:45:39;;;;;;;;;;;19.90;81.50;;;;;;6277860;22;42856;-74
2023/10/27 04:48:05;;;;;;;;;;;19.80;81.60;;;;;;6277113;22;43070;-75
2023/10/27 04:50:35;;;;;;;;;;;19.90;81.10;;;;;;6277795;22;42788;-74
2023/10/27 04:53:00;;;;;;;;;;;19.90;81.50;;;;;;6277372;22;43037;-74
2023/10/27 04:55:26;;;;;;;;;;;19.90;81.60;;;;;;6277750;22;42903;-74
2023/10/27 04:57:51;;;;;;;;;;;19.90;81.50;;;;;;6277069;22;43608;-75
2023/10/27 05:00:17;;;;;;;;;;;19.80;81.40;;;;;;6275173;22;42919;-76
2023/10/27 05:02:42;;;;;;;;;;;19.80;81.60;;;;;;6276676;22;43903;-74
2023/10/27 05:05:09;;;;;;;;;;;19.90;81.00;;;;;;6276313;22;43419;-76
2023/10/27 05:07:35;;;;;;;;;;;20.00;81.60;;;;;;6276414;22;42967;-77
2023/10/27 05:10:00;;;;;;;;;;;19.90;81.10;;;;;;6287537;22;42950;-76
2023/10/27 05:12:26;;;;;;;;;;;19.40;80.70;;;;;;6307396;22;42731;-76
2023/10/27 05:15:16;;;;;;;;;;;19.80;81.00;;;;;;6307981;22;42760;-78
2023/10/27 05:17:42;;;;;;;;;;;19.90;79.30;;;;;;6307963;22;42831;-79
2023/10/27 05:20:07;;;;;;;;;;;19.80;81.00;;;;;;6307327;22;42938;-79
2023/10/27 05:22:33;;;;;;;;;;;19.90;81.00;;;;;;6311833;22;43943;-78
2023/10/27 05:25:01;;;;;;;;;;;19.80;81.60;;;;;;6312006;22;42739;-79
2023/10/27 05:27:26;;;;;;;;;;;19.80;82.00;;;;;;6313280;22;43617;-76
2023/10/27 05:29:52;;;;;;;;;;;19.80;81.60;;;;;;6309480;22;42716;-78
2023/10/27 05:32:17;;;;;;;;;;;19.90;81.70;;;;;;6309095;22;43213;-77
2023/10/27 05:34:43;;;;;;;;;;;19.70;81.50;;;;;;6307122;22;42900;-77
2023/10/27 05:37:09;;;;;;;;;;;19.90;81.50;;;;;;6307120;22;42793;-78
2023/10/27 05:39:35;;;;;;;;;;;19.80;81.60;;;;;;6307753;22;43109;-77
2023/10/27 05:42:00;;;;;;;;;;;20.00;81.70;;;;;;6280594;22;43552;-78
2023/10/27 05:44:26;;;;;;;;;;;19.90;81.60;;;;;;6307257;22;42955;-79
2023/10/27 05:46:51;;;;;;;;;;;19.70;81.50;;;;;;6308043;22;43480;-78
2023/10/27 05:49:17;;;;;;;;;;;19.70;81.60;;;;;;6308372;22;42949;-77
2023/10/27 05:51:42;;;;;;;;;;;19.80;81.60;;;;;;6312084;22;42966;-77
2023/10/27 05:54:08;;;;;;;;;;;19.90;81.20;;;;;;6309823;22;43123;-75
2023/10/27 05:56:33;;;;;;;;;;;19.90;81.70;;;;;;6309993;22;42882;-75
2023/10/27 05:58:59;;;;;;;;;;;19.80;81.60;;;;;;6310842;22;42758;-75
2023/10/27 06:01:24;;;;;;;;;;;19.90;81.10;;;;;;6310041;22;42887;-76
2023/10/27 06:03:50;;;;;;;;;;;19.80;81.60;;;;;;6309493;22;42708;-78
2023/10/27 06:06:15;;;;;;;;;;;20.00;81.80;;;;;;6308769;22;42882;-75
2023/10/27 06:08:44;;;;;;;;;;;19.80;81.70;;;;;;6309902;22;42716;-79
2023/10/27 06:11:13;;;;;;;;;;;19.90;81.60;;;;;;6308727;22;43366;-77
2023/10/27 06:13:39;;;;;;;;;;;19.90;81.60;;;;;;6311635;22;42930;-76
2023/10/27 06:16:05;;;;;;;;;;;19.90;81.80;;;;;;6310647;22;42973;-78
2023/10/27 06:18:30;;;;;;;;;;;19.80;81.00;;;;;;6309886;22;42697;-79
2023/10/27 06:20:56;;;;;;;;;;;19.90;81.70;;;;;;6309219;22;43340;-76
2023/10/27 06:23:21;;;;;;;;;;;19.80;81.60;;;;;;6310666;22;42943;-79
2023/10/27 06:25:47;;;;;;;;;;;19.80;81.70;;;;;;6310227;22;42832;-75
2023/10/27 06:28:12;;;;;;;;;;;19.70;81.60;;;;;;6310631;22;42773;-78
2023/10/27 06:30:38;;;;;;;;;;;19.80;81.80;;;;;;6310084;22;42906;-77
2023/10/27 06:33:03;;;;;;;;;;;19.80;81.20;;;;;;6310146;22;42975;-79
2023/10/27 06:35:29;;;;;;;;;;;19.80;81.80;;;;;;6311727;22;43660;-77
2023/10/27 06:37:55;;;;;;;;;;;19.80;81.70;;;;;;6310303;22;42901;-75
2023/10/27 06:40:22;;;;;;;;;;;19.70;81.60;;;;;;6309237;22;43588;-79
2023/10/27 06:42:48;;;;;;;;;;;19.80;81.60;;;;;;6311000;22;42910;-76
2023/10/27 06:45:14;;;;;;;;;;;19.90;81.30;;;;;;6311166;22;43083;-79
2023/10/27 06:47:40;;;;;;;;;;;19.80;81.70;;;;;;6309723;22;42911;-76
2023/10/27 06:50:06;;;;;;;;;;;19.90;81.80;;;;;;6310256;22;42927;-77
2023/10/27 06:52:32;;;;;;;;;;;19.90;81.50;;;;;;6310032;22;42771;-79
2023/10/27 06:54:58;;;;;;;;;;;20.00;81.80;;;;;;6309892;22;43537;-76
2023/10/27 06:57:23;;;;;;;;;;;19.90;81.20;;;;;;6312244;22;42883;-79
2023/10/27 06:59:49;;;;;;;;;;;19.90;81.70;;;;;;6310597;22;43016;-78
2023/10/27 07:02:14;;;;;;;;;;;19.80;81.90;;;;;;6311895;22;43262;-79
2023/10/27 07:04:40;;;;;;;;;;;19.80;81.80;;;;;;6310177;22;43111;-78
2023/10/27 07:07:06;;;;;;;;;;;19.70;81.70;;;;;;6309951;22;42947;-76
2023/10/27 07:09:32;;;;;;;;;;;19.90;81.20;;;;;;6309623;22;42943;-79
2023/10/27 07:12:00;;;;;;;;;;;19.70;81.60;;;;;;6310082;22;42999;-76
2023/10/27 07:14:26;;;;;;;;;;;19.70;81.50;;;;;;6311527;22;43396;-77
2023/10/27 07:16:52;;;;;;;;;;;19.80;81.60;;;;;;6310210;22;42660;-78
2023/10/27 07:19:18;;;;;;;;;;;19.80;81.60;;;;;;6309132;22;42842;-76
2023/10/27 07:21:44;;;;;;;;;;;19.80;81.60;;;;;;6310648;22;42684;-79
2023/10/27 07:24:10;;;;;;;;;;;19.90;81.70;;;;;;6310926;22;42999;-79
2023/10/27 07:26:35;;;;;;;;;;;19.80;81.70;;;;;;6311640;22;42850;-76
2023/10/27 07:29:00;;;;;;;;;;;19.90;81.60;;;;;;6310139;22;42874;-78
2023/10/27 07:31:26;;;;;;;;;;;19.80;81.60;;;;;;6311786;22;42956;-76
2023/10/27 07:33:51;;;;;;;;;;;19.70;81.60;;;;;;6311269;22;42839;-79
2023/10/27 07:36:17;;;;;;;;;;;19.80;81.70;;;;;;6312138;22;42897;-76
2023/10/27 07:38:42;;;;;;;;;;;19.90;81.80;;;;;;6310511;22;42861;-79
2023/10/27 07:41:08;;;;;;;;;;;19.80;81.70;;;;;;6311043;22;42955;-76
2023/10/27 07:43:34;;;;;;;;;;;19.90;81.70;;;;;;6311905;22;42764;-78
2023/10/27 07:46:00;;;;;;;;;;;19.80;81.70;;;;;;6311227;22;42851;-78
2023/10/27 07:48:26;;;;;;;;;;;20.00;81.70;;;;;;6309137;22;43381;-76
2023/10/27 07:50:56;;;;;;;;;;;19.90;82.30;;;;;;6325320;22;42887;-79
2023/10/27 07:53:22;;;;;;;;;;;19.90;81.70;;;;;;6326773;22;42455;-77
2023/10/27 07:55:48;;;;;;;;;;;19.80;81.60;;;;;;6313852;22;42921;-77
2023/10/27 07:58:14;;;;;;;;;;;19.80;81.70;;;;;;6311821;22;42916;-79
2023/10/27 08:00:39;;;;;;;;;;;19.80;81.60;;;;;;6313059;22;42878;-79
2023/10/27 08:03:05;;;;;;;;;;;19.80;81.70;;;;;;6312116;22;42868;-76
2023/10/27 08:05:31;;;;;;;;;;;19.80;81.80;;;;;;6312202;22;42739;-78
2023/10/27 08:07:56;;;;;;;;;;;19.90;81.70;;;;;;6311794;22;42809;-77
2023/10/27 08:10:22;;;;;;;;;;;20.10;81.90;;;;;;6311218;22;42700;-79
2023/10/27 08:12:47;;;;;;;;;;;19.80;81.80;;;;;;6310826;22;43438;-76
2023/10/27 08:15:13;;;;;;;;;;;20.00;81.70;;;;;;6312558;22;42685;-78
2023/10/27 08:17:38;;;;;;;;;;;19.90;81.70;;;;;;6312998;22;42855;-77
2023/10/27 08:20:04;;;;;;;;;;;19.90;81.80;;;;;;6312330;22;43236;-78
2023/10/27 08:22:32;;;;;;;;;;;20.10;81.30;;;;;;6312675;22;43244;-77
2023/10/27 08:24:58;;;;;;;;;;;19.90;81.00;;;;;;6311663;22;42935;-76
2023/10/27 08:27:24;;;;;;;;;;;20.00;81.10;;;;;;6313999;22;43717;-78
2023/10/27 08:29:56;;;;;;;;;;;20.00;81.10;;;;;;6313031;22;42863;-77
2023/10/27 08:32:22;;;;;;;;;;;20.00;79.90;;;;;;6312354;22;42902;-78
2023/10/27 08:34:48;;;;;;;;;;;19.90;81.60;;;;;;6310894;22;42938;-78
2023/10/27 08:37:13;;;;;;;;;;;20.00;81.50;;;;;;6310518;22;43492;-78
2023/10/27 08:39:39;;;;;;;;;;;20.10;81.60;;;;;;6312460;22;42887;-77
2023/10/27 08:42:07;;;;;;;;;;;20.00;81.80;;;;;;6312059;22;42880;-77
2023/10/27 08:44:33;;;;;;;;;;;19.80;81.10;;;;;;6311765;22;42701;-78
2023/10/27 08:46:58;;;;;;;;;;;19.90;81.50;;;;;;6309244;22;43398;-75
2023/10/27 08:49:24;;;;;;;;;;;20.00;81.50;;;;;;6311416;22;42869;-79
2023/10/27 08:51:51;;;;;;;;;;;19.80;81.50;;;;;;6310213;22;42913;-77
2023/10/27 08:54:17;;;;;;;;;;;20.00;81.70;;;;;;6311575;22;42902;-76
2023/10/27 08:56:43;;;;;;;;;;;20.00;81.60;;;;;;6284013;22;44970;-78
2023/10/27 08:59:11;;;;;;;;;;;19.90;81.50;;;;;;6311676;22;43076;-76
2023/10/27 09:01:37;;;;;;;;;;;19.90;80.20;;;;;;6309594;22;43389;-75
2023/10/27 09:04:08;;;;;;;;;;;20.10;81.70;;;;;;6310646;22;43412;-79
2023/10/27 09:06:35;;;;;;;;;;;19.80;79.80;;;;;;6309941;22;43330;-78
2023/10/27 09:09:00;;;;;;;;;;;19.90;81.80;;;;;;6309483;22;42904;-79
2023/10/27 09:11:26;;;;;;;;;;;20.00;81.90;;;;;;6311389;22;43576;-78
2023/10/27 09:13:51;;;;;;;;;;;19.90;81.90;;;;;;6310010;22;42858;-77
2023/10/27 09:16:24;;;;;;;;;;;19.80;81.80;;;;;;6310028;22;43367;-76
2023/10/27 09:18:51;;;;;;;;;;;20.00;80.30;;;;;;6283176;22;42838;-76
2023/10/27 09:21:30;;;;;;;;;;;19.90;80.40;;;;;;6311520;22;42909;-76
2023/10/27 09:23:56;;;;;;;;;;;19.70;80.20;;;;;;6310972;22;42772;-77
2023/10/27 09:26:28;;;;;;;;;;;20.00;81.80;;;;;;6282654;22;43599;-78
2023/10/27 09:29:01;;;;;;;;;;;19.80;81.50;;;;;;6309392;22;42887;-79
2023/10/27 09:31:44;;;;;;;;;;;19.80;80.50;;;;;;6310306;22;42878;-76
2023/10/27 09:34:24;;;;;;;;;;;19.80;80.60;;;;;;6310587;22;42819;-77
2023/10/27 09:36:50;;;;;;;;;;;19.70;80.50;;;;;;6310373;22;43465;-76
2023/10/27 09:39:16;;;;;;;;;;;19.80;82.50;;;;;;6310779;22;42898;-78
2023/10/27 09:41:47;;;;;;;;;;;19.80;82.60;;;;;;6312312;22;43131;-79
2023/10/27 09:44:14;;;;;;;;;;;19.90;80.90;;;;;;6310923;22;42907;-77
2023/10/27 09:46:41;;;;;;;;;;;19.70;82.50;;;;;;6311268;22;43687;-77
2023/10/27 09:49:09;;;;;;;;;;;19.90;82.50;;;;;;6311615;22;42913;-77
2023/10/27 09:51:37;;;;;;;;;;;19.80;82.10;;;;;;6310723;22;44212;-75
2023/10/27 09:54:03;;;;;;;;;;;19.90;82.70;;;;;;6284931;22;42810;-78
2023/10/27 09:56:30;;;;;;;;;;;20.00;82.80;;;;;;6312262;22;43471;-76
2023/10/27 09:58:55;;;;;;;;;;;19.80;81.20;;;;;;6310863;22;42918;-76
2023/10/27 10:01:21;;;;;;;;;;;19.80;83.00;;;;;;6310269;22;43460;-79
2023/10/27 10:03:46;;;;;;;;;;;19.80;82.90;;;;;;6310957;22;42909;-76
2023/10/27 10:06:17;;;;;;;;;;;19.80;82.50;;;;;;6310131;22;42826;-76
2023/10/27 10:09:01;;;;;;;;;;;19.70;81.40;;;;;;6311188;22;42701;-78
2023/10/27 10:11:27;;;;;;;;;;;19.70;81.40;;;;;;6310510;22;42671;-76
2023/10/27 10:13:53;;;;;;;;;;;19.80;83.20;;;;;;6311437;22;42657;-76
2023/10/27 10:16:18;;;;;;;;;;;19.80;83.30;;;;;;6308883;22;43622;-75
2023/10/27 10:18:47;;;;;;;;;;;19.90;83.30;;;;;;6310970;22;42776;-75
2023/10/27 10:21:29;;;;;;;;;;;19.80;81.60;;;;;;6315179;22;43979;-75
2023/10/27 10:24:03;;;;;;;;;;;19.80;83.50;;;;;;6316248;22;43081;-75
2023/10/27 10:26:47;;;;;;;;;;;19.80;81.80;;;;;;6311106;22;43545;-74
2023/10/27 10:29:28;;;;;;;;;;;19.70;81.90;;;;;;6312048;22;42809;-78
2023/10/27 10:32:14;;;;;;;;;;;19.80;81.90;;;;;;6310229;22;43489;-75
2023/10/27 10:34:39;;;;;;;;;;;19.90;83.30;;;;;;6310348;22;42767;-74
2023/10/27 10:37:23;;;;;;;;;;;19.80;83.80;;;;;;6309604;22;42705;-77
2023/10/27 10:40:08;;;;;;;;;;;19.80;82.10;;;;;;6310305;22;43004;-76
2023/10/27 10:42:53;;;;;;;;;;;19.80;82.10;;;;;;6309140;22;42938;-77
2023/10/27 10:45:19;;;;;;;;;;;19.80;83.90;;;;;;6310082;22;43034;-74
2023/10/27 10:47:44;;;;;;;;;;;19.70;83.50;;;;;;6308794;22;43556;-76
2023/10/27 10:50:10;;;;;;;;;;;19.80;83.50;;;;;;6308923;22;43381;-75
2023/10/27 10:52:36;;;;;;;;;;;19.80;83.50;;;;;;6309873;22;43545;-74
2023/10/27 10:55:02;;;;;;;;;;;19.90;83.50;;;;;;6309945;22;42712;-78
2023/10/27 10:57:29;;;;;;;;;;;20.20;84.30;;;;;;6309856;22;43405;-78
2023/10/27 10:59:56;;;;;;;;;;;19.80;84.00;;;;;;6310722;22;42934;-75
2023/10/27 11:02:21;;;;;;;;;;;19.70;84.20;;;;;;6309629;22;42898;-79
2023/10/27 11:04:47;;;;;;;;;;;19.80;84.30;;;;;;6281997;22;42930;-79
2023/10/27 11:07:14;;;;;;;;;;;20.10;84.30;;;;;;6310235;22;44312;-79
2023/10/27 11:09:43;;;;;;;;;;;19.90;83.70;;;;;;6309067;22;42680;-78
2023/10/27 11:12:27;;;;;;;;;;;20.10;82.80;;;;;;6281944;22;42726;-78
2023/10/27 11:14:53;;;;;;;;;;;19.90;82.10;;;;;;6309723;22;42946;-78
2023/10/27 11:17:18;;;;;;;;;;;19.80;84.30;;;;;;6309769;22;44579;-78
2023/10/27 11:19:56;;;;;;;;;;;19.80;84.40;;;;;;6282657;22;42900;-78
2023/10/27 11:22:22;;;;;;;;;;;19.80;82.60;;;;;;6283504;22;44013;-79
2023/10/27 11:24:48;;;;;;;;;;;19.90;84.40;;;;;;6310797;22;42808;-76
2023/10/27 11:27:26;;;;;;;;;;;19.70;84.30;;;;;;6309920;22;43591;-78
2023/10/27 11:29:56;;;;;;;;;;;19.70;82.50;;;;;;6308942;22;42811;-79
2023/10/27 11:56:11;;;;;;;;;;;19.80;88.30;;;;;;6258551;22;44815;-77
2023/10/27 11:58:39;;;;;;;;;;;19.80;90.00;;;;;;6279462;22;42916;-79
2023/10/27 12:47:29;;;;;;;;;;;19.90;90.00;;;;;;6266023;22;42995;-79
2023/10/27 12:52:29;;;;;;;;;;;19.90;90.30;;;;;;6319677;22;42881;-78
2023/10/27 12:54:55;;;;;;;;;;;20.00;90.10;;;;;;6318668;22;42800;-79
2023/10/27 12:57:21;;;;;;;;;;;20.00;90.70;;;;;;6317771;22;42930;-80
2023/10/27 13:11:09;;;;;;;;;;;19.90;90.60;;;;;;6279632;22;44134;-79
2023/10/27 13:16:41;;;;;;;;;;;20.10;90.40;;;;;;6342152;22;42841;-80
2023/10/27 14:40:17;;;;;;;;;;;20.00;90.80;;;;;;6213759;22;43855;-79
2023/10/27 14:42:47;;;;;;;;;;;20.20;90.70;;;;;;6215268;22;43170;-78
2023/10/27 14:48:28;;;;;;;;;;;20.00;90.40;;;;;;6311362;22;42783;-79
2023/10/27 14:51:19;;;;;;;;;;;20.00;90.20;;;;;;6309511;22;42893;-79
2023/10/27 14:54:07;;;;;;;;;;;20.10;90.10;;;;;;6310313;22;42812;-79
2023/10/27 14:56:57;;;;;;;;;;;20.10;90.00;;;;;;6310630;22;43500;-79
2023/10/27 14:59:32;;;;;;;;;;;20.20;89.90;;;;;;6282822;22;43160;-79
2023/10/27 15:02:28;;;;;;;;;;;20.10;89.60;;;;;;6309729;22;43625;-77
2023/10/27 15:04:54;;;;;;;;;;;20.00;89.30;;;;;;6308592;22;42907;-78
2023/10/27 15:07:20;;;;;;;;;;;20.00;90.40;;;;;;6309251;22;42943;-79
2023/10/27 15:09:45;;;;;;;;;;;20.30;90.70;;;;;;6308771;22;42760;-76
2023/10/27 15:12:11;;;;;;;;;;;20.00;90.50;;;;;;6309966;22;42704;-76
2023/10/27 15:14:37;;;;;;;;;;;19.90;90.40;;;;;;6314611;22;42767;-76
2023/10/27 15:17:03;;;;;;;;;;;20.00;90.40;;;;;;6340579;22;43647;-76
2023/10/27 15:19:28;;;;;;;;;;;20.00;90.40;;;;;;6340914;22;42970;-76
2023/10/27 15:21:54;;;;;;;;;;;20.00;90.50;;;;;;6353568;22;43374;-79
2023/10/27 15:24:19;;;;;;;;;;;20.10;90.30;;;;;;6350988;22;43030;-75
2023/10/27 15:26:45;;;;;;;;;;;20.00;90.60;;;;;;6343507;22;42925;-77
2023/10/27 15:29:11;;;;;;;;;;;20.10;90.50;;;;;;6342573;22;42894;-78
2023/10/27 15:31:37;;;;;;;;;;;20.00;90.40;;;;;;6342106;22;43004;-79
2023/10/27 15:34:03;;;;;;;;;;;20.10;90.50;;;;;;6340036;22;42796;-82
2023/10/27 15:36:29;;;;;;;;;;;20.10;90.40;;;;;;6341669;22;42896;-78
2023/10/27 15:38:54;;;;;;;;;;;20.10;90.50;;;;;;6341996;22;42890;-81
2023/10/27 15:41:23;;;;;;;;;;;20.30;90.60;;;;;;6342778;22;42882;-81
2023/10/27 15:43:49;;;;;;;;;;;20.10;89.10;;;;;;6314324;22;43468;-82
2023/10/27 15:46:15;;;;;;;;;;;20.20;90.30;;;;;;6344289;22;42943;-76
2023/10/27 15:48:41;;;;;;;;;;;20.10;90.40;;;;;;6342987;22;42782;-82
2023/10/27 15:51:06;;;;;;;;;;;19.90;90.40;;;;;;6339546;22;42791;-84
2023/10/27 15:53:37;;;;;;;;;;;19.90;90.30;;;;;;6341439;22;42948;-84
2023/10/27 15:56:03;;;;;;;;;;;20.10;90.30;;;;;;6343463;22;43939;-78
2023/10/27 15:58:29;;;;;;;;;;;20.10;90.10;;;;;;6342359;22;42941;-76
2023/10/27 16:00:55;;;;;;;;;;;20.10;90.10;;;;;;6342363;22;42925;-78
2023/10/27 16:03:21;;;;;;;;;;;20.20;90.10;;;;;;6340179;22;42944;-84
2023/10/27 16:05:47;;;;;;;;;;;20.20;90.00;;;;;;6340948;22;43450;-76
2023/10/27 16:08:13;;;;;;;;;;;20.10;90.00;;;;;;6341272;22;43103;-82
2023/10/27 16:10:39;;;;;;;;;;;20.20;90.10;;;;;;6342235;22;42759;-76
2023/10/27 16:13:05;;;;;;;;;;;20.20;90.20;;;;;;6341933;22;42935;-78
2023/10/27 16:15:30;;;;;;;;;;;20.00;90.10;;;;;;6341420;22;43401;-77
2023/10/27 16:17:56;;;;;;;;;;;20.30;89.70;;;;;;6344455;22;43092;-77
2023/10/27 16:20:22;;;;;;;;;;;20.30;89.80;;;;;;6345060;22;42723;-78
2023/10/27 16:22:48;;;;;;;;;;;20.30;90.00;;;;;;6340959;22;42935;-76
2023/10/27 16:25:13;;;;;;;;;;;20.40;89.90;;;;;;6341269;22;43026;-82
2023/10/27 16:27:39;;;;;;;;;;;20.40;89.60;;;;;;6341702;22;42921;-77
2023/10/27 16:30:05;;;;;;;;;;;20.30;89.70;;;;;;6342293;22;43014;-82
2023/10/27 16:32:31;;;;;;;;;;;20.50;88.60;;;;;;6343395;22;42865;-79
2023/10/27 16:34:57;;;;;;;;;;;20.70;89.00;;;;;;6342037;22;42859;-76
2023/10/27 16:37:22;;;;;;;;;;;20.50;88.60;;;;;;6341071;22;42905;-81
2023/10/27 16:39:48;;;;;;;;;;;20.90;90.10;;;;;;6342352;22;44327;-83
2023/10/27 16:42:14;;;;;;;;;;;20.40;90.40;;;;;;6340539;22;42810;-82
2023/10/27 16:44:40;;;;;;;;;;;20.50;90.40;;;;;;6340661;22;43405;-76
2023/10/27 16:47:06;;;;;;;;;;;20.40;90.00;;;;;;6339033;22;42789;-80
2023/10/27 16:49:31;;;;;;;;;;;20.60;89.60;;;;;;6339920;22;42727;-85
2023/10/27 16:51:57;;;;;;;;;;;20.60;89.60;;;;;;6340838;22;42699;-81
2023/10/27 16:54:22;;;;;;;;;;;20.70;89.50;;;;;;6336154;22;42933;-77
2023/10/27 16:56:48;;;;;;;;;;;20.70;88.90;;;;;;6340566;22;43068;-76
2023/10/27 16:59:14;;;;;;;;;;;20.90;89.40;;;;;;6343054;22;43407;-83
2023/10/27 17:01:40;;;;;;;;;;;20.70;89.40;;;;;;6341535;22;42935;-76
2023/10/27 17:04:06;;;;;;;;;;;20.70;89.00;;;;;;6341516;22;42758;-77
2023/10/27 17:06:31;;;;;;;;;;;20.60;89.40;;;;;;6313677;22;42891;-81